Disclaimer

Please do not use the information listed here in-flight or in-navigation, as they are not provided to us by the airports but are provided by volunteers, so they might be outdated.

Search


Regions


Airport information page

Radio informations:
CALVI TWR - 120.8 MHz
CALVI GND - 121.7 MHz

Airport informations:
Latitude: 42° 31' 50.71" N
Longitude: 008° 47' 35.48" E
Elevation: 209 feet - 64 meters
Operating hours: Remarks
Operating agency: Civil government, landing fees and diplomatic clearance may be required
Timezone: UTC+1(+2DT) - Last Sunday in March to last Sunday in October
Fuel: Jet A1, without icing nhibitor.

100/130 MIL Spec, low lead, aviation gasoline (BLUE)

Runway information:
18/36 - 7579 x 131 feet< - >2310 x 40 meters

Recent METARs:
LFKC 160630Z AUTO 17005KT 150V220 CAVOK 10/09 Q1020 NOSIG
LFKC 160700Z AUTO 18004KT 140V220 CAVOK 10/09 Q1020 NOSIG
LFKC 160730Z AUTO VRB02KT CAVOK 11/10 Q1020 NOSIG

Airport on the map: